createdAt,value
2022-10-09T00:01:14.187Z,11.47
2022-10-09T00:03:44.589Z,11.60
2022-10-09T00:06:15.219Z,5.37
2022-10-09T00:08:43.917Z,15.97
2022-10-09T00:11:14.771Z,12.80
2022-10-09T00:13:42.960Z,547.20
2022-10-09T00:16:14.621Z,13.93
2022-10-09T00:18:43.036Z,40.47
2022-10-09T00:21:20.146Z,10.57
2022-10-09T00:23:48.659Z,11.90
2022-10-09T00:26:17.116Z,21.17
2022-10-09T00:28:45.389Z,18.77
2022-10-09T00:31:15.656Z,8.40
2022-10-09T00:33:43.846Z,11.53
2022-10-09T00:36:14.566Z,11.57
2022-10-09T00:38:42.947Z,11.27
2022-10-09T00:41:15.886Z,16.90
2022-10-09T00:43:46.896Z,7.20
2022-10-09T00:46:33.553Z,52.70
2022-10-09T00:49:06.925Z,8.50
2022-10-09T00:51:36.031Z,5.37
2022-10-09T00:54:07.940Z,6.60
2022-10-09T00:56:36.514Z,9.27
2022-10-09T00:59:05.010Z,6.80
2022-10-09T01:01:34.641Z,7.93
2022-10-09T01:04:02.706Z,9.67
2022-10-09T01:06:44.869Z,8.07
2022-10-09T01:09:15.845Z,8.73
2022-10-09T01:11:52.819Z,27.40
2022-10-09T01:14:27.195Z,9.63
2022-10-09T01:17:03.316Z,79.10
2022-10-09T01:20:02.240Z,8.93
2022-10-09T01:22:44.900Z,87.10
2022-10-09T01:25:20.846Z,41.90
2022-10-09T01:27:50.611Z,6.97
2022-10-09T01:30:18.813Z,12.77
2022-10-09T01:32:51.827Z,6.47
2022-10-09T01:35:21.687Z,7.57
2022-10-09T01:37:51.935Z,8.80
2022-10-09T01:40:21.256Z,6.77
2022-10-09T01:42:50.831Z,30.47
2022-10-09T01:45:19.055Z,29.37
2022-10-09T01:47:47.131Z,130.70
2022-10-09T01:50:24.518Z,20.77
2022-10-09T01:52:55.011Z,22.53
2022-10-09T01:55:37.380Z,158.90
2022-10-09T01:58:16.595Z,22.10
2022-10-09T02:00:48.316Z,678.30
2022-10-09T02:03:18.160Z,10.90
2022-10-09T02:05:49.615Z,133.63
2022-10-09T02:08:21.023Z,26.33
2022-10-09T02:10:52.074Z,40.80
2022-10-09T02:13:22.056Z,29.83
2022-10-09T02:15:53.760Z,91.50
2022-10-09T02:18:29.423Z,48.13
2022-10-09T02:21:05.318Z,55.97
2022-10-09T02:23:34.460Z,23.63
2022-10-09T02:26:02.531Z,66.20
2022-10-09T02:28:32.520Z,11.47
2022-10-09T02:31:06.690Z,124.93
2022-10-09T02:33:35.285Z,23.67
2022-10-09T02:36:03.605Z,15.13
2022-10-09T02:38:31.826Z,21.23
2022-10-09T02:41:01.042Z,50.30
2022-10-09T02:43:29.655Z,14.47
2022-10-09T02:45:59.040Z,68.43
2022-10-09T02:48:27.025Z,21.20
2022-10-09T02:50:55.045Z,42.20
2022-10-09T02:53:23.086Z,14.27
2022-10-09T02:55:51.099Z,30.47
2022-10-09T02:58:19.147Z,22.87
2022-10-09T03:00:49.728Z,25.03
2022-10-09T03:03:19.975Z,15.23
2022-10-09T03:05:48.577Z,19.33
2022-10-09T03:08:16.624Z,42.30
2022-10-09T03:10:44.631Z,30.37
2022-10-09T03:13:12.641Z,29.20
2022-10-09T03:15:40.664Z,21.37
2022-10-09T03:18:08.708Z,12.70
2022-10-09T03:20:39.087Z,48.87
2022-10-09T03:23:07.092Z,29.37
2022-10-09T03:25:35.090Z,43.93
2022-10-09T03:28:03.179Z,40.23
2022-10-09T03:30:31.272Z,67.43
2022-10-09T03:32:59.284Z,18.10
2022-10-09T03:35:27.275Z,44.03
2022-10-09T03:37:56.665Z,20.07
2022-10-09T03:40:24.633Z,31.23
2022-10-09T03:42:52.639Z,363.23
2022-10-09T03:45:20.621Z,204.47
2022-10-09T03:47:48.647Z,34.83
2022-10-09T03:50:16.728Z,11.83
2022-10-09T03:52:44.771Z,68.90
2022-10-09T03:55:14.463Z,48.30
2022-10-09T03:57:42.463Z,12.17
2022-10-09T04:00:11.793Z,39.57
2022-10-09T04:02:39.843Z,37.27
2022-10-09T04:05:08.899Z,35.07
2022-10-09T04:07:36.930Z,27.33
2022-10-09T04:10:06.005Z,64.50
2022-10-09T04:12:35.399Z,40.93
2022-10-09T04:15:03.908Z,52.83
2022-10-09T04:17:31.977Z,17.33
2022-10-09T04:20:00.047Z,45.70
2022-10-09T04:22:28.829Z,35.00
2022-10-09T04:24:56.819Z,33.17
2022-10-09T04:27:24.850Z,40.20
2022-10-09T04:29:54.243Z,197.83
2022-10-09T04:32:22.261Z,110.27
2022-10-09T04:34:50.275Z,23.43
2022-10-09T04:37:18.269Z,31.30
2022-10-09T04:39:46.272Z,52.03
2022-10-09T04:42:14.293Z,21.10
2022-10-09T04:44:42.288Z,12.27
2022-10-09T04:47:11.676Z,21.30
2022-10-09T04:49:39.782Z,23.93
2022-10-09T04:52:07.812Z,85.70
2022-10-09T04:54:35.815Z,13.67
2022-10-09T04:57:03.797Z,44.30
2022-10-09T04:59:31.999Z,632.40
2022-10-09T05:02:00.016Z,26.03
2022-10-09T05:04:29.459Z,30.03
2022-10-09T05:06:57.415Z,22.57
2022-10-09T05:09:25.546Z,21.53
2022-10-09T05:11:53.539Z,19.70
2022-10-09T05:14:21.546Z,23.70
2022-10-09T05:17:12.556Z,58.30
2022-10-09T05:19:41.716Z,40.47
2022-10-09T05:22:09.738Z,20.97
2022-10-09T05:24:37.825Z,8.70
2022-10-09T05:27:05.946Z,48.07
2022-10-09T05:29:34.294Z,20.43
2022-10-09T05:32:02.370Z,24.53
2022-10-09T05:34:30.490Z,79.30
2022-10-09T05:36:59.841Z,40.40
2022-10-09T05:39:27.919Z,29.27
2022-10-09T05:41:55.972Z,47.10
2022-10-09T05:44:24.121Z,35.60
2022-10-09T05:46:52.081Z,37.40
2022-10-09T05:49:20.121Z,63.07
2022-10-09T05:51:49.826Z,68.80
2022-10-09T05:54:19.619Z,33.53
2022-10-09T05:56:47.877Z,58.27
2022-10-09T05:59:19.685Z,28.23
2022-10-09T06:01:49.728Z,61.23
2022-10-09T06:04:19.456Z,73.17
2022-10-09T06:06:48.953Z,43.73
2022-10-09T06:09:19.650Z,28.53
2022-10-09T06:11:47.688Z,41.47
2022-10-09T06:14:15.709Z,75.63
2022-10-09T06:16:47.117Z,45.40
2022-10-09T06:19:17.145Z,29.83
2022-10-09T06:21:47.094Z,39.50
2022-10-09T06:24:24.465Z,55.33
2022-10-09T06:26:55.190Z,142.77
2022-10-09T06:29:23.369Z,74.40
2022-10-09T06:31:51.367Z,83.47
2022-10-09T06:34:19.591Z,84.63
2022-10-09T06:36:47.625Z,41.07
2022-10-09T06:39:15.909Z,17.87
2022-10-09T06:41:45.305Z,165.30
2022-10-09T06:44:17.222Z,211.60
2022-10-09T06:46:47.015Z,279.93
2022-10-09T06:49:15.061Z,27.70
2022-10-09T06:51:43.073Z,162.57
2022-10-09T06:54:14.160Z,49.57
2022-10-09T06:56:42.704Z,283.83
2022-10-09T06:59:12.983Z,427.20
2022-10-09T07:01:41.139Z,538.40
2022-10-09T07:04:13.285Z,655.27
2022-10-09T07:06:43.369Z,541.67
2022-10-09T07:09:13.426Z,771.07
2022-10-09T07:11:43.591Z,681.27
2022-10-09T07:14:15.884Z,768.50
2022-10-09T07:16:45.775Z,917.17
2022-10-09T07:19:15.170Z,755.43
2022-10-09T07:21:44.489Z,711.17
2022-10-09T07:24:13.914Z,819.33
2022-10-09T07:26:43.806Z,1001.73
2022-10-09T07:29:15.022Z,747.37
2022-10-09T07:31:43.895Z,732.90
2022-10-09T07:34:11.950Z,713.73
2022-10-09T07:36:39.941Z,668.77
2022-10-09T07:39:08.101Z,671.03
2022-10-09T07:41:36.467Z,710.60
2022-10-09T07:44:04.652Z,641.23
2022-10-09T07:46:34.477Z,600.00
2022-10-09T07:49:03.049Z,423.23
2022-10-09T07:51:32.501Z,420.20
2022-10-09T07:54:02.043Z,382.93
2022-10-09T07:56:32.587Z,482.87
2022-10-09T07:59:02.537Z,672.70
2022-10-09T08:01:31.951Z,236.63
2022-10-09T08:04:02.002Z,304.43
2022-10-09T08:06:30.508Z,75.27
2022-10-09T08:09:00.202Z,78.47
2022-10-09T08:11:29.496Z,66.90
2022-10-09T08:13:57.743Z,149.40
2022-10-09T08:16:26.920Z,84.97
2022-10-09T08:18:56.689Z,83.53
2022-10-09T08:21:27.864Z,188.40
2022-10-09T08:23:56.886Z,242.63
2022-10-09T08:26:26.410Z,237.30
2022-10-09T08:28:56.370Z,236.23
2022-10-09T08:31:25.070Z,162.00
2022-10-09T08:33:54.593Z,131.90
2022-10-09T08:36:23.400Z,287.77
2022-10-09T08:38:53.202Z,99.20
2022-10-09T08:41:28.659Z,370.13
2022-10-09T08:44:02.323Z,457.23
2022-10-09T08:46:37.483Z,261.23
2022-10-09T08:49:06.582Z,389.20
2022-10-09T08:51:38.873Z,255.30
2022-10-09T08:54:20.258Z,334.20
2022-10-09T08:56:50.455Z,295.00
2022-10-09T08:59:18.515Z,377.73
2022-10-09T09:01:52.998Z,290.87
2022-10-09T09:04:35.542Z,289.07
2022-10-09T09:07:13.421Z,303.00
2022-10-09T09:09:51.263Z,380.37
2022-10-09T09:12:28.502Z,529.17
2022-10-09T09:15:22.090Z,295.77
2022-10-09T09:17:58.430Z,151.03
2022-10-09T09:20:31.178Z,199.63
2022-10-09T09:23:02.394Z,446.90
2022-10-09T09:25:36.010Z,702.40
2022-10-09T09:28:14.877Z,412.57
2022-10-09T09:30:48.143Z,799.83
2022-10-09T09:33:22.168Z,684.03
2022-10-09T09:36:06.427Z,632.90
2022-10-09T09:38:34.420Z,519.63
2022-10-09T09:41:05.348Z,632.70
2022-10-09T09:43:33.360Z,631.13
2022-10-09T09:46:02.155Z,725.97
2022-10-09T09:48:35.808Z,500.73
2022-10-09T09:51:26.889Z,798.37
2022-10-09T09:53:55.881Z,551.37
2022-10-09T09:56:59.896Z,739.80
2022-10-09T09:59:34.756Z,681.37
2022-10-09T10:02:05.542Z,632.90
2022-10-09T10:04:33.832Z,752.03
2022-10-09T10:07:02.551Z,680.43
2022-10-09T10:09:31.848Z,865.37
2022-10-09T10:12:03.753Z,589.43
2022-10-09T10:14:32.535Z,886.97
2022-10-09T10:17:01.924Z,941.37
2022-10-09T10:19:31.321Z,729.17
2022-10-09T10:22:01.954Z,600.77
2022-10-09T10:24:33.777Z,1032.93
2022-10-09T10:27:08.327Z,843.53
2022-10-09T10:29:39.698Z,499.67
2022-10-09T10:32:16.372Z,624.20
2022-10-09T10:34:48.952Z,492.87
2022-10-09T10:37:28.987Z,495.40
2022-10-09T10:40:02.341Z,715.57
2022-10-09T10:42:41.792Z,636.60
2022-10-09T10:45:15.855Z,599.27
2022-10-09T10:47:52.572Z,758.23
2022-10-09T10:50:22.085Z,469.23
2022-10-09T10:53:04.783Z,712.17
2022-10-09T10:55:41.205Z,649.73
2022-10-09T10:58:23.656Z,633.23
2022-10-09T11:00:58.484Z,622.73
2022-10-09T11:03:43.969Z,714.40
2022-10-09T11:06:22.513Z,923.37
2022-10-09T11:09:09.708Z,924.73
2022-10-09T11:11:45.529Z,505.03
2022-10-09T11:14:27.639Z,582.40
2022-10-09T11:17:07.244Z,685.70
2022-10-09T11:20:05.490Z,652.17
2022-10-09T11:22:57.514Z,606.37
2022-10-09T11:25:31.297Z,483.87
2022-10-09T11:28:05.702Z,524.70
2022-10-09T11:30:44.297Z,691.37
2022-10-09T11:33:29.847Z,564.20
2022-10-09T11:36:02.599Z,777.63
2022-10-09T11:38:35.906Z,618.73
2022-10-09T11:41:07.356Z,770.43
2022-10-09T11:43:52.931Z,558.97
2022-10-09T11:46:33.251Z,656.43
2022-10-09T11:49:10.211Z,717.23
2022-10-09T11:51:45.436Z,552.50
2022-10-09T11:54:17.459Z,592.23
2022-10-09T11:56:57.999Z,784.03
2022-10-09T11:59:30.082Z,707.07
2022-10-09T12:02:01.290Z,853.60
2022-10-09T12:04:53.496Z,760.73
2022-10-09T12:07:34.175Z,810.50
2022-10-09T12:10:06.062Z,743.40
2022-10-09T12:12:34.732Z,634.07
2022-10-09T12:15:23.688Z,891.07
2022-10-09T12:17:53.198Z,1249.87
2022-10-09T12:20:24.811Z,743.33
2022-10-09T12:23:24.653Z,806.47
2022-10-09T12:25:46.827Z,1107.17
2022-10-09T12:28:21.614Z,572.87
2022-10-09T12:30:51.574Z,778.50
2022-10-09T12:33:26.798Z,862.83
2022-10-09T12:36:05.876Z,779.87
2022-10-09T12:38:34.270Z,819.37
2022-10-09T12:41:05.369Z,934.17
2022-10-09T12:43:34.535Z,643.00
2022-10-09T12:46:02.992Z,694.20
2022-10-09T12:48:38.909Z,968.90
2022-10-09T12:51:16.284Z,924.53
2022-10-09T12:53:49.073Z,978.13
2022-10-09T12:56:23.888Z,877.90
2022-10-09T12:58:53.485Z,658.93
2022-10-09T13:01:22.315Z,975.77
2022-10-09T13:04:00.385Z,674.80
2022-10-09T13:06:34.415Z,1094.83
2022-10-09T13:09:06.017Z,640.57
2022-10-09T13:11:38.017Z,1007.30
2022-10-09T13:14:06.388Z,1205.53
2022-10-09T13:16:41.850Z,1293.83
2022-10-09T13:19:23.437Z,1080.77
2022-10-09T13:22:18.921Z,849.43
2022-10-09T13:24:47.193Z,1701.87
2022-10-09T13:27:15.708Z,906.63
2022-10-09T13:29:44.434Z,786.27
2022-10-09T13:32:14.341Z,864.70
2022-10-09T13:34:44.211Z,649.47
2022-10-09T13:37:14.060Z,750.17
2022-10-09T13:39:42.212Z,590.70
2022-10-09T13:42:13.006Z,819.97
2022-10-09T13:44:41.008Z,980.90
2022-10-09T13:47:09.035Z,942.07
2022-10-09T13:49:37.019Z,788.93
2022-10-09T13:52:06.494Z,983.03
2022-10-09T13:54:34.518Z,926.70
2022-10-09T13:57:02.718Z,644.07
2022-10-09T13:59:31.691Z,684.80
2022-10-09T14:02:00.589Z,961.20
2022-10-09T14:04:29.171Z,660.77
2022-10-09T14:06:57.275Z,520.90
2022-10-09T14:09:26.851Z,1353.27
2022-10-09T14:11:54.894Z,974.83
2022-10-09T14:14:23.518Z,924.43
2022-10-09T14:16:51.788Z,875.77
2022-10-09T14:19:19.903Z,924.20
2022-10-09T14:21:47.910Z,909.37
2022-10-09T14:24:15.925Z,676.67
2022-10-09T14:26:50.815Z,911.40
2022-10-09T14:29:19.994Z,746.73
2022-10-09T14:31:50.650Z,770.13
2022-10-09T14:34:18.740Z,758.70
2022-10-09T14:36:46.855Z,687.13
2022-10-09T14:39:15.083Z,1092.80
2022-10-09T14:41:43.186Z,568.10
2022-10-09T14:44:12.671Z,733.77
2022-10-09T14:46:40.668Z,1051.17
2022-10-09T14:49:10.178Z,831.93
2022-10-09T14:51:39.982Z,880.50
2022-10-09T14:54:09.143Z,987.93
2022-10-09T14:56:37.391Z,942.83
2022-10-09T14:59:06.866Z,1198.50
2022-10-09T15:01:36.820Z,1410.97
2022-10-09T15:04:06.051Z,754.63
2022-10-09T15:06:34.922Z,889.63
2022-10-09T15:09:05.456Z,992.30
2022-10-09T15:11:34.986Z,867.10
2022-10-09T15:14:03.134Z,721.10
2022-10-09T15:16:31.253Z,955.07
2022-10-09T15:19:00.676Z,980.73
2022-10-09T15:21:30.652Z,805.17
2022-10-09T15:23:59.982Z,736.67
2022-10-09T15:26:29.752Z,692.03
2022-10-09T15:28:57.884Z,762.50
2022-10-09T15:31:28.194Z,968.10
2022-10-09T15:33:58.040Z,714.87
2022-10-09T15:36:27.514Z,781.83
2022-10-09T15:38:56.687Z,1401.53
2022-10-09T15:41:26.776Z,1432.40
2022-10-09T15:43:57.269Z,716.30
2022-10-09T15:46:26.095Z,826.53
2022-10-09T15:48:54.860Z,785.87
2022-10-09T15:51:23.176Z,606.87
2022-10-09T15:53:53.141Z,1124.93
2022-10-09T15:56:23.654Z,675.40
2022-10-09T15:58:52.089Z,674.77
2022-10-09T16:01:21.408Z,893.23
2022-10-09T16:03:49.846Z,926.10
2022-10-09T16:06:19.849Z,894.97
2022-10-09T16:08:48.673Z,687.80
2022-10-09T16:11:21.923Z,901.40
2022-10-09T16:13:53.919Z,813.17
2022-10-09T16:16:25.054Z,672.63
2022-10-09T16:18:53.594Z,546.80
2022-10-09T16:21:24.220Z,527.10
2022-10-09T16:23:58.083Z,651.23
2022-10-09T16:26:29.749Z,797.60
2022-10-09T16:28:58.520Z,549.47
2022-10-09T16:31:28.567Z,555.83
2022-10-09T16:33:56.843Z,484.03
2022-10-09T16:36:24.845Z,717.87
2022-10-09T16:38:52.895Z,1017.40
2022-10-09T16:41:22.995Z,1454.90
2022-10-09T16:43:55.013Z,450.40
2022-10-09T16:46:25.105Z,866.77
2022-10-09T16:48:55.066Z,668.10
2022-10-09T16:51:25.011Z,930.90
2022-10-09T16:53:54.698Z,611.53
2022-10-09T16:56:24.578Z,988.77
2022-10-09T16:58:56.927Z,681.60
2022-10-09T17:01:25.479Z,554.53
2022-10-09T17:03:55.557Z,948.07
2022-10-09T17:06:24.505Z,753.87
2022-10-09T17:08:52.946Z,498.30
2022-10-09T17:11:21.488Z,606.83
2022-10-09T17:13:49.522Z,721.77
2022-10-09T17:16:22.504Z,546.70
2022-10-09T17:18:51.086Z,573.70
2022-10-09T17:21:19.806Z,1148.50
2022-10-09T17:23:48.263Z,1054.57
2022-10-09T17:26:18.645Z,474.63
2022-10-09T17:28:47.998Z,1717.97
2022-10-09T17:31:20.542Z,680.63
2022-10-09T17:33:49.858Z,747.43
2022-10-09T17:36:19.368Z,1181.00
2022-10-09T17:38:48.343Z,659.10
2022-10-09T17:41:17.957Z,523.50
2022-10-09T17:43:46.162Z,452.73
2022-10-09T17:46:15.719Z,671.00
2022-10-09T17:48:50.284Z,1391.70
2022-10-09T17:51:19.789Z,195.23
2022-10-09T17:53:48.417Z,442.60
2022-10-09T17:56:16.842Z,320.77
2022-10-09T17:58:47.460Z,463.80
2022-10-09T18:01:16.440Z,1290.23
2022-10-09T18:03:46.566Z,329.63
2022-10-09T18:06:16.880Z,776.90
2022-10-09T18:08:45.702Z,255.57
2022-10-09T18:11:16.265Z,1786.73
2022-10-09T18:13:45.351Z,730.67
2022-10-09T18:16:16.499Z,370.50
2022-10-09T18:18:46.091Z,396.40
2022-10-09T18:21:17.652Z,265.90
2022-10-09T18:23:46.998Z,211.37
2022-10-09T18:26:17.363Z,291.47
2022-10-09T18:28:48.298Z,387.90
2022-10-09T18:31:19.542Z,100.70
2022-10-09T18:33:49.196Z,724.87
2022-10-09T18:36:19.716Z,226.70
2022-10-09T18:38:49.519Z,193.73
2022-10-09T18:41:18.525Z,201.80
2022-10-09T18:43:46.841Z,327.23
2022-10-09T18:46:15.695Z,338.67
2022-10-09T18:48:44.424Z,213.40
2022-10-09T18:51:17.918Z,193.67
2022-10-09T18:53:48.815Z,61.13
2022-10-09T18:56:20.410Z,344.13
2022-10-09T18:58:50.401Z,190.73
2022-10-09T19:01:18.469Z,407.17
2022-10-09T19:03:49.933Z,341.37
2022-10-09T19:06:20.668Z,410.03
2022-10-09T19:08:48.673Z,367.20
2022-10-09T19:11:16.887Z,68.23
2022-10-09T19:13:45.780Z,485.20
2022-10-09T19:16:13.838Z,202.70
2022-10-09T19:18:41.890Z,105.93
2022-10-09T19:21:14.365Z,68.13
2022-10-09T19:23:43.932Z,247.17
2022-10-09T19:26:14.175Z,103.77
2022-10-09T19:28:42.209Z,44.90
2022-10-09T19:31:11.668Z,126.10
2022-10-09T19:33:40.363Z,78.93
2022-10-09T19:36:10.915Z,270.90
2022-10-09T19:38:39.196Z,233.23
2022-10-09T19:41:10.994Z,233.13
2022-10-09T19:43:39.321Z,167.43
2022-10-09T19:46:09.123Z,79.80
2022-10-09T19:48:37.524Z,196.00
2022-10-09T19:51:07.857Z,380.47
2022-10-09T19:53:36.807Z,435.13
2022-10-09T19:56:12.140Z,324.03
2022-10-09T19:58:41.807Z,377.27
2022-10-09T20:01:11.557Z,187.83
2022-10-09T20:03:40.359Z,69.70
2022-10-09T20:06:10.082Z,243.57
2022-10-09T20:08:38.722Z,176.43
2022-10-09T20:11:08.313Z,185.53
2022-10-09T20:13:39.681Z,171.37
2022-10-09T20:16:10.989Z,145.20
2022-10-09T20:18:42.088Z,98.33
2022-10-09T20:21:11.437Z,288.17
2022-10-09T20:23:40.000Z,45.57
2022-10-09T20:26:10.282Z,161.10
2022-10-09T20:28:40.066Z,303.60
2022-10-09T20:31:11.756Z,540.50
2022-10-09T20:33:40.277Z,1096.37
2022-10-09T20:36:09.627Z,296.80
2022-10-09T20:38:37.627Z,269.97
2022-10-09T20:41:07.626Z,615.60
2022-10-09T20:43:36.250Z,316.07
2022-10-09T20:46:09.007Z,151.70
2022-10-09T20:48:37.678Z,494.20
2022-10-09T20:51:06.083Z,250.73
2022-10-09T20:53:34.483Z,518.70
2022-10-09T20:56:03.554Z,264.90
2022-10-09T20:58:31.567Z,247.53
2022-10-09T21:00:59.949Z,97.53
2022-10-09T21:03:29.793Z,592.27
2022-10-09T21:05:58.148Z,238.50
2022-10-09T21:08:26.250Z,81.77
2022-10-09T21:10:54.336Z,339.10
2022-10-09T21:13:22.814Z,81.37
2022-10-09T21:15:51.998Z,87.17
2022-10-09T21:18:20.777Z,161.17
2022-10-09T21:20:50.406Z,179.93
2022-10-09T21:23:19.832Z,287.30
2022-10-09T21:25:49.455Z,152.50
2022-10-09T21:28:17.889Z,423.60
2022-10-09T21:30:45.959Z,109.77
2022-10-09T21:33:14.391Z,224.23
2022-10-09T21:35:43.355Z,49.47
2022-10-09T21:38:14.826Z,1227.57
2022-10-09T21:40:43.447Z,216.10
2022-10-09T21:43:12.115Z,29.10
2022-10-09T21:45:40.537Z,108.27
2022-10-09T21:48:09.120Z,1165.90
2022-10-09T21:50:38.148Z,52.60
2022-10-09T21:53:06.179Z,14.70
2022-10-09T21:55:35.610Z,15.63
2022-10-09T21:58:03.624Z,167.47
2022-10-09T22:00:31.662Z,95.77
2022-10-09T22:02:59.658Z,26.53
2022-10-09T22:05:27.674Z,39.67
2022-10-09T22:07:55.752Z,65.53
2022-10-09T22:10:23.732Z,68.67
2022-10-09T22:12:53.428Z,28.17
2022-10-09T22:15:21.716Z,174.87
2022-10-09T22:17:49.729Z,26.03
2022-10-09T22:20:17.892Z,64.57
2022-10-09T22:22:45.937Z,37.50
2022-10-09T22:25:13.918Z,50.70
2022-10-09T22:27:41.914Z,116.87
2022-10-09T22:30:12.669Z,320.70
2022-10-09T22:32:40.674Z,454.80
2022-10-09T22:35:09.382Z,435.40
2022-10-09T22:37:37.406Z,452.57
2022-10-09T22:40:05.944Z,376.47
2022-10-09T22:42:34.880Z,254.97
2022-10-09T22:45:02.906Z,296.27
2022-10-09T22:47:32.339Z,92.40
2022-10-09T22:50:00.350Z,42.90
2022-10-09T22:52:29.101Z,78.27
2022-10-09T22:54:57.739Z,45.80
2022-10-09T22:57:25.800Z,68.20
2022-10-09T22:59:53.770Z,108.03
2022-10-09T23:02:21.795Z,137.10
2022-10-09T23:04:51.139Z,106.27
2022-10-09T23:07:19.206Z,23.27
2022-10-09T23:09:47.179Z,20.20
2022-10-09T23:12:15.185Z,50.37
2022-10-09T23:14:43.447Z,38.20
2022-10-09T23:17:11.455Z,43.50
2022-10-09T23:19:39.631Z,53.23
2022-10-09T23:22:09.015Z,57.27
2022-10-09T23:24:37.022Z,39.13
2022-10-09T23:27:05.149Z,125.60
2022-10-09T23:29:33.128Z,134.00
2022-10-09T23:32:01.110Z,29.13
2022-10-09T23:34:29.295Z,29.60
2022-10-09T23:36:57.315Z,63.33
2022-10-09T23:39:26.691Z,22.60
2022-10-09T23:41:54.719Z,40.73
2022-10-09T23:44:22.710Z,10.67
2022-10-09T23:46:50.925Z,42.57
2022-10-09T23:49:18.996Z,19.07
2022-10-09T23:51:47.799Z,15.60
2022-10-09T23:54:15.810Z,40.63
2022-10-09T23:56:45.175Z,77.37
2022-10-09T23:59:13.446Z,23.33
